Time;durP1;ratioP1;P1;durP2;ratioP2;P2;SDS_P1;SDS_P2;PMS_P1;PMS_P2;Temp;Humidity;BMP_temperature;BMP_pressure;BME280_temperature;BME280_humidity;BME280_pressure;Samples;Min_cycle;Max_cycle;Signal;HPM_P1;HPM_P2
2021/06/18 00:00:25;;;;;;;23.85;20.40;;;24.00;99.90;;;24.44;67.60;101317.84;5135405;27;20043;-68
2021/06/18 00:02:55;;;;;;;23.42;19.35;;;24.00;99.90;;;24.47;67.34;101310.41;5135148;27;20058;-68
2021/06/18 00:05:24;;;;;;;22.10;18.92;;;24.00;99.90;;;24.43;67.32;101308.84;5134692;27;20442;-68
2021/06/18 00:07:53;;;;;;;22.55;20.08;;;24.00;99.90;;;24.12;67.18;101254.66;5134951;27;20043;-68
2021/06/18 00:10:25;;;;;;;21.63;18.80;;;24.00;99.90;;;24.42;67.36;101322.44;5134962;27;20468;-68
2021/06/18 00:12:54;;;;;;;22.85;19.15;;;24.00;99.90;;;24.26;68.03;101306.16;5134912;27;20063;-68
2021/06/18 00:15:26;;;;;;;22.30;19.00;;;23.90;99.90;;;24.34;67.96;101330.09;5134829;27;20039;-68
2021/06/18 00:17:54;;;;;;;25.65;19.95;;;23.90;99.90;;;24.35;67.73;101326.44;5116664;27;20047;-68
2021/06/18 00:20:23;;;;;;;25.95;20.45;;;23.80;99.90;;;24.10;68.17;101291.72;5134891;27;20454;-68
2021/06/18 00:22:51;;;;;;;23.23;19.98;;;23.80;99.90;;;24.27;68.54;101326.88;5134632;27;20071;-69
2021/06/18 00:25:20;;;;;;;23.13;20.70;;;23.80;99.90;;;24.27;68.83;101328.69;5134506;27;20039;-68
2021/06/18 00:27:48;;;;;;;23.45;20.38;;;23.80;99.90;;;24.07;69.33;101302.72;5134548;27;20051;-69
2021/06/18 00:30:18;;;;;;;24.45;20.30;;;23.70;99.90;;;24.10;69.44;101299.84;5116566;27;20495;-68
2021/06/18 00:32:49;;;;;;;25.25;21.35;;;23.70;99.90;;;24.12;70.22;101304.22;5134720;27;20043;-69
2021/06/18 00:35:18;;;;;;;26.63;21.75;;;23.60;99.90;;;24.14;70.16;101320.34;5134633;27;20070;-68
2021/06/18 00:37:46;;;;;;;30.08;21.25;;;23.70;99.90;;;24.12;70.35;101320.44;5134582;27;20095;-69
2021/06/18 00:40:15;;;;;;;26.92;22.23;;;23.60;99.90;;;24.11;70.73;101309.69;5134666;27;20035;-70
2021/06/18 00:42:45;;;;;;;28.80;22.92;;;23.60;99.90;;;24.12;70.81;101328.53;5134338;27;20047;-69
2021/06/18 00:45:14;;;;;;;27.63;23.63;;;23.70;99.90;;;23.98;71.76;101316.69;5134578;27;20070;-69
2021/06/18 00:47:50;;;;;;;31.85;24.75;;;23.50;99.90;;;24.04;71.97;101298.34;5116072;27;20584;-68
2021/06/18 00:50:20;;;;;;;29.25;23.98;;;23.50;99.90;;;23.98;71.99;101304.03;5134472;27;20092;-69
2021/06/18 00:52:49;;;;;;;30.95;25.90;;;23.50;99.90;;;23.93;72.63;101295.28;5134990;27;20595;-69
2021/06/18 00:55:17;;;;;;;30.45;24.00;;;23.50;99.90;;;23.93;72.36;101311.50;5134314;27;20096;-68
2021/06/18 00:57:47;;;;;;;29.15;24.25;;;23.40;99.90;;;23.98;71.69;101332.91;5134246;27;20035;-70
2021/06/18 01:00:16;;;;;;;32.05;24.23;;;23.50;99.90;;;23.99;71.10;101357.16;5115878;27;20137;-68
2021/06/18 01:02:47;;;;;;;31.65;26.60;;;23.50;99.90;;;24.02;70.32;101361.56;5134118;27;20072;-68
2021/06/18 01:05:19;;;;;;;32.60;25.08;;;23.50;99.90;;;23.91;70.89;101350.38;5115790;27;20043;-68
2021/06/18 01:07:59;;;;;;;31.27;26.40;;;23.50;99.90;;;23.20;74.04;101335.06;5133862;27;20043;-68
2021/06/18 01:10:40;;;;;;;32.70;27.58;;;22.90;99.90;;;23.04;75.39;101307.06;5134179;27;20047;-68
2021/06/18 01:13:24;;;;;;;35.75;29.35;;;22.60;99.90;;;23.16;75.49;101309.19;5134059;27;20439;-68
2021/06/18 01:16:04;;;;;;;36.63;28.95;;;22.60;99.90;;;22.84;76.88;101302.63;5134439;27;20100;-68
2021/06/18 01:18:43;;;;;;;37.22;31.83;;;22.40;99.90;;;22.87;77.54;101297.09;5115128;27;20047;-69
2021/06/18 01:21:24;;;;;;;39.33;32.17;;;22.40;99.90;;;22.91;77.35;101304.13;5134059;27;20092;-68
2021/06/18 01:24:05;;;;;;;41.13;34.70;;;22.50;99.90;;;22.10;80.83;101292.66;5133881;28;20122;-69
2021/06/18 01:26:49;;;;;;;43.20;34.17;;;21.80;99.90;;;22.41;80.49;101260.59;5133693;28;20137;-69
2021/06/18 01:29:21;;;;;;;42.70;36.08;;;22.00;99.90;;;22.77;80.21;101260.72;5133951;28;20051;-69
2021/06/18 01:31:51;;;;;;;49.88;38.15;;;22.30;99.90;;;22.89;79.32;101238.56;5133952;28;20038;-69
2021/06/18 01:34:27;;;;;;;48.60;39.83;;;22.40;99.90;;;22.94;78.61;101231.09;5134009;28;20035;-69
2021/06/18 01:37:04;;;;;;;49.90;41.08;;;22.50;99.90;;;22.97;78.35;101239.06;5115451;28;20408;-69
2021/06/18 01:39:33;;;;;;;53.35;43.17;;;22.60;99.90;;;23.00;78.28;101262.28;5133898;28;20043;-69
2021/06/18 01:42:05;;;;;;;51.78;41.50;;;22.60;99.90;;;23.07;77.81;101271.84;5133476;28;20043;-69
2021/06/18 01:44:36;;;;;;;53.28;42.78;;;22.60;99.90;;;23.13;77.86;101288.59;5133798;28;20137;-69
2021/06/18 01:47:08;;;;;;;52.15;40.42;;;22.70;99.90;;;23.17;77.72;101283.94;5133562;28;20039;-69
2021/06/18 01:49:38;;;;;;;51.90;43.05;;;22.80;99.90;;;23.19;77.45;101295.50;5133530;28;20036;-69
2021/06/18 01:52:10;;;;;;;50.17;41.88;;;22.80;99.90;;;23.21;77.15;101309.81;5133800;28;20035;-69
2021/06/18 01:54:41;;;;;;;51.97;41.85;;;22.80;99.90;;;23.20;76.97;101314.38;5115286;28;20081;-69
2021/06/18 01:57:13;;;;;;;51.95;42.60;;;22.80;99.90;;;22.61;77.48;101210.31;5115137;28;20397;-69
2021/06/18 01:59:45;;;;;;;56.47;43.72;;;22.70;99.90;;;23.21;77.40;101320.63;5133654;28;20039;-69
2021/06/18 02:02:16;;;;;;;50.58;42.75;;;22.70;99.90;;;23.28;77.42;101316.69;5133502;28;20039;-68
2021/06/18 02:04:46;;;;;;;59.30;43.67;;;22.80;99.90;;;22.95;77.67;101249.03;5133674;28;20039;-69
2021/06/18 02:07:15;;;;;;;64.20;45.60;;;22.90;99.90;;;23.28;78.17;101327.47;5115090;28;20481;-69
2021/06/18 02:09:46;;;;;;;49.83;41.30;;;22.90;99.90;;;22.93;76.89;101283.31;5115308;28;20062;-69
2021/06/18 02:12:18;;;;;;;55.97;44.10;;;23.00;99.90;;;23.42;77.32;101380.84;5115148;28;20054;-69
2021/06/18 02:14:49;;;;;;;61.25;43.88;;;23.00;99.90;;;23.35;77.55;101384.78;5133512;28;20047;-69
2021/06/18 02:17:19;;;;;;;56.28;45.78;;;22.90;99.90;;;23.23;78.38;101357.41;5133645;28;20051;-69
2021/06/18 02:19:49;;;;;;;58.10;45.20;;;22.80;99.90;;;23.48;78.65;101365.19;5115038;28;20043;-70
2021/06/18 02:22:18;;;;;;;58.55;46.92;;;22.90;99.90;;;23.53;78.31;101381.19;5133677;28;20709;-69
2021/06/18 02:24:50;;;;;;;57.90;44.50;;;23.00;99.90;;;23.46;77.68;101372.50;5133415;28;20039;-69
2021/06/18 02:27:19;;;;;;;56.63;45.30;;;23.00;99.90;;;23.36;78.42;101357.72;5133656;28;20075;-69
2021/06/18 02:29:49;;;;;;;60.05;46.80;;;22.90;99.90;;;23.42;79.28;101365.53;5135716;27;20088;-69
2021/06/18 02:32:19;;;;;;;62.33;47.58;;;22.90;99.90;;;23.23;79.54;101365.50;5137445;27;20039;-69
2021/06/18 02:34:49;;;;;;;57.20;44.92;;;22.80;99.90;;;23.18;80.54;101359.47;5137378;27;20055;-69
2021/06/18 02:37:18;;;;;;;54.90;44.42;;;22.70;99.90;;;23.25;80.70;101370.81;5137028;27;20047;-68
2021/06/18 02:39:48;;;;;;;51.93;43.40;;;22.70;99.90;;;23.30;80.21;101366.09;5137031;27;20050;-69
2021/06/18 02:42:17;;;;;;;54.27;44.30;;;22.80;99.90;;;23.18;80.33;101356.75;5137097;27;20092;-69
2021/06/18 02:44:46;;;;;;;56.53;45.55;;;22.70;99.90;;;23.31;80.23;101330.03;5136589;27;20043;-70
2021/06/18 02:47:23;;;;;;;58.25;45.50;;;22.80;99.90;;;23.36;80.27;101317.22;5136825;27;20104;-69
2021/06/18 02:49:58;;;;;;;54.42;44.70;;;22.90;99.90;;;23.35;80.44;101309.16;5137084;27;20430;-69
2021/06/18 02:52:33;;;;;;;57.10;45.13;;;22.90;99.90;;;23.26;80.32;101321.28;5136492;27;20043;-69
2021/06/18 02:55:09;;;;;;;53.80;44.15;;;22.90;99.90;;;23.21;79.77;101332.28;5136671;27;20047;-69
2021/06/18 02:57:48;;;;;;;54.08;43.70;;;22.80;99.90;;;23.13;80.59;101330.94;5136797;27;20043;-69
2021/06/18 03:00:19;;;;;;;51.55;43.28;;;22.60;99.90;;;23.14;80.65;101329.97;5136629;27;20071;-69
2021/06/18 03:02:55;;;;;;;54.15;44.33;;;22.70;99.90;;;23.19;80.68;101330.59;5136258;27;20078;-69
2021/06/18 03:05:25;;;;;;;53.05;44.28;;;22.70;99.90;;;23.25;80.36;101338.41;5136471;27;20047;-69
2021/06/18 03:07:56;;;;;;;;;;;22.80;99.90;;;23.25;80.75;101338.41;5118490;27;20448;-69
2021/06/18 03:10:26;;;;;;;;;;;22.80;99.90;;;23.29;80.79;101331.91;5136820;27;19926;-69
2021/06/18 03:13:04;;;;;;;58.17;44.97;;;22.80;99.90;;;23.21;80.32;101320.63;5136273;27;19919;-69
2021/06/18 03:15:36;;;;;;;51.97;44.92;;;22.80;99.90;;;23.24;80.42;101315.06;5136495;27;20047;-69
2021/06/18 03:18:08;;;;;;;52.30;43.63;;;22.80;99.90;;;23.30;80.83;101315.66;5117786;27;20044;-69
2021/06/18 03:20:38;;;;;;;53.60;45.20;;;22.80;99.90;;;23.33;80.57;101305.66;5136187;27;20047;-69
2021/06/18 03:23:11;;;;;;;55.72;46.08;;;22.90;99.90;;;23.30;80.27;101306.69;5136130;27;20093;-69
2021/06/18 03:25:41;;;;;;;59.08;48.03;;;22.80;99.90;;;22.47;82.41;101309.81;5136076;27;20074;-69
2021/06/18 03:28:11;;;;;;;60.10;47.97;;;22.40;99.90;;;21.39;87.36;101302.91;5136430;27;20480;-69
2021/06/18 03:30:40;;;;;;;66.68;51.58;;;21.30;99.90;;;21.05;91.67;101297.19;5135822;27;20561;-69
2021/06/18 03:33:11;;;;;;;66.50;55.03;;;20.80;99.90;;;21.00;92.39;101291.09;5135987;27;20043;-69
2021/06/18 03:35:40;;;;;;;77.72;58.22;;;20.60;99.90;;;20.73;94.10;101298.44;5136042;27;20067;-69
2021/06/18 03:38:10;;;;;;;74.10;58.15;;;20.40;99.90;;;20.60;94.88;101257.72;5135736;27;20084;-69
2021/06/18 03:40:39;;;;;;;77.00;59.93;;;20.40;99.90;;;20.96;94.46;101298.41;5135353;27;20067;-69
2021/06/18 03:43:09;;;;;;;80.63;62.80;;;20.60;99.90;;;21.09;94.78;101304.19;5135826;27;20040;-69
2021/06/18 03:45:44;;;;;;;77.85;61.10;;;20.70;99.90;;;20.88;94.94;101326.53;5117254;27;20070;-69
2021/06/18 03:48:16;;;;;;;80.13;62.45;;;20.60;99.90;;;20.89;95.96;101339.91;5135394;27;20595;-69
2021/06/18 03:50:45;;;;;;;83.03;62.85;;;20.50;99.90;;;21.15;95.24;101352.38;5135672;27;20474;-69
2021/06/18 03:53:16;;;;;;;81.43;61.47;;;20.70;99.90;;;21.44;94.39;101349.38;5117063;27;20100;-69
2021/06/18 03:55:47;;;;;;;75.28;59.33;;;20.90;99.90;;;21.69;93.66;101351.91;5135797;27;20047;-69
2021/06/18 03:58:19;;;;;;;73.13;57.33;;;21.20;99.90;;;21.84;92.67;101352.16;5135478;27;20488;-69
2021/06/18 04:00:50;;;;;;;72.07;57.42;;;21.40;99.90;;;22.04;92.10;101343.22;5117031;27;20396;-69
2021/06/18 04:03:21;;;;;;;72.07;56.80;;;21.60;99.90;;;22.17;91.33;101339.03;5116636;27;20051;-69
2021/06/18 04:05:51;;;;;;;69.65;54.65;;;21.80;99.90;;;22.32;90.31;101330.25;5135362;27;20051;-69
2021/06/18 04:08:21;;;;;;;69.40;54.83;;;21.90;99.90;;;22.38;89.88;101301.22;5135299;27;20092;-69
2021/06/18 04:10:50;;;;;;;71.28;55.08;;;22.00;99.90;;;22.35;89.25;101268.13;5116519;27;20050;-69
2021/06/18 04:13:19;;;;;;;65.93;54.90;;;22.00;99.90;;;22.18;89.40;101230.31;5134901;27;20043;-69
2021/06/18 04:15:48;;;;;;;69.05;54.70;;;21.90;99.90;;;22.03;90.03;101183.38;5135025;27;20067;-69
2021/06/18 04:18:22;;;;;;;68.40;52.40;;;21.70;99.90;;;21.91;90.57;101189.31;5135010;27;20092;-69
2021/06/18 04:20:51;;;;;;;68.07;51.80;;;21.70;99.90;;;21.95;91.13;101190.91;5135082;27;20046;-69
2021/06/18 04:23:24;;;;;;;64.63;53.22;;;21.60;99.90;;;21.93;91.07;101216.22;5134988;27;20104;-69
2021/06/18 04:25:52;;;;;;;65.63;51.53;;;21.60;99.90;;;21.66;92.36;101244.34;5134724;27;20074;-69
2021/06/18 04:28:21;;;;;;;66.93;53.83;;;21.40;99.90;;;20.98;95.71;101248.09;5116390;27;20063;-69
2021/06/18 04:30:50;;;;;;;72.55;55.35;;;20.90;99.90;;;21.17;97.08;101245.56;5134760;27;20453;-69
2021/06/18 04:33:18;;;;;;;72.85;57.30;;;20.80;99.90;;;20.88;97.54;101232.41;5134493;27;20060;-68
2021/06/18 04:35:48;;;;;;;76.68;59.22;;;20.70;99.90;;;20.57;99.81;101220.22;5134376;27;20446;-68
2021/06/18 04:38:16;;;;;;;76.50;60.05;;;20.40;99.90;;;20.93;99.71;101231.28;5134996;27;20408;-69
2021/06/18 04:40:45;;;;;;;73.60;58.72;;;20.50;99.90;;;21.05;98.93;101233.50;5134510;27;20039;-69
2021/06/18 04:43:13;;;;;;;68.20;55.67;;;20.70;99.90;;;21.04;98.24;101247.03;5134583;27;20116;-69
2021/06/18 04:45:42;;;;;;;65.40;52.47;;;20.70;99.90;;;20.84;98.71;101249.59;5134466;27;20458;-69
2021/06/18 04:48:10;;;;;;;65.05;51.30;;;20.60;99.90;;;20.81;98.85;101244.38;5134513;27;20119;-69
2021/06/18 04:50:39;;;;;;;57.70;47.97;;;20.50;99.90;;;20.78;98.23;101225.66;5134146;27;20501;-69
2021/06/18 04:53:10;;;;;;;58.63;49.33;;;20.60;99.90;;;20.91;97.88;101243.91;5133435;27;20122;-69
2021/06/18 04:55:40;;;;;;;59.40;49.85;;;20.60;99.90;;;20.90;98.08;101234.09;5134506;27;20059;-69
2021/06/18 04:58:11;;;;;;;59.50;49.88;;;20.60;99.90;;;21.12;97.46;101234.09;5134442;27;20051;-69
2021/06/18 05:00:39;;;;;;;59.97;49.80;;;20.80;99.90;;;21.12;96.62;101242.16;5134308;27;20051;-68
2021/06/18 05:03:08;;;;;;;59.97;50.10;;;20.80;99.90;;;21.22;96.86;101230.09;5134145;27;20058;-69
2021/06/18 05:05:36;;;;;;;57.17;49.80;;;20.90;99.90;;;21.47;96.20;101231.66;5115753;27;20108;-69
2021/06/18 05:08:05;;;;;;;57.13;48.05;;;21.10;99.90;;;21.49;95.11;101231.59;5134075;27;20512;-69
2021/06/18 05:10:35;;;;;;;57.90;47.20;;;21.20;99.90;;;21.39;94.67;101233.81;5134047;27;20147;-69
2021/06/18 05:13:03;;;;;;;56.53;47.53;;;21.10;99.90;;;21.43;95.49;101237.25;5134109;27;20043;-69
2021/06/18 05:15:32;;;;;;;54.00;46.28;;;21.10;99.90;;;21.26;94.97;101210.19;5134142;27;20043;-69
2021/06/18 05:18:01;;;;;;;55.80;45.33;;;21.10;99.90;;;21.13;96.75;101215.22;5134108;27;20047;-68
2021/06/18 05:20:30;;;;;;;54.80;45.55;;;20.90;99.90;;;21.42;96.71;101211.28;5133872;27;20047;-68
2021/06/18 05:22:58;;;;;;;55.63;45.92;;;21.00;99.90;;;21.39;96.17;101206.00;5133985;27;20085;-68
2021/06/18 05:25:29;;;;;;;50.15;44.67;;;21.00;99.90;;;21.49;95.74;101207.38;5133693;28;20126;-69
2021/06/18 05:27:59;;;;;;;52.78;44.85;;;21.10;99.90;;;21.56;95.44;101211.56;5133956;27;20046;-68
2021/06/18 05:30:28;;;;;;;47.53;42.33;;;21.20;99.90;;;21.50;94.96;101226.13;5115568;28;20097;-68
2021/06/18 05:32:57;;;;;;;48.15;41.53;;;21.20;99.90;;;21.12;97.02;101232.28;5133911;28;20058;-68
2021/06/18 05:35:26;;;;;;;47.90;42.47;;;20.90;99.90;;;21.37;96.78;101233.00;5133881;28;20055;-68
2021/06/18 05:37:55;;;;;;;47.00;41.17;;;21.00;99.90;;;21.55;95.94;101251.06;5133843;28;20043;-68
2021/06/18 05:40:24;;;;;;;43.35;38.75;;;21.20;99.90;;;21.45;95.52;101236.25;5133757;28;20134;-68
2021/06/18 05:42:52;;;;;;;45.33;40.05;;;21.10;99.90;;;21.75;95.47;101249.31;5133833;28;20077;-68
2021/06/18 05:45:23;;;;;;;41.65;37.33;;;21.30;99.90;;;21.90;94.48;101244.16;5133813;28;20100;-68
2021/06/18 05:47:51;;;;;;;39.17;35.00;;;21.50;99.90;;;22.04;93.68;101243.53;5133514;28;20569;-68
2021/06/18 05:50:20;;;;;;;39.83;35.70;;;21.70;99.90;;;22.06;92.83;101252.41;5133610;28;20092;-68
2021/06/18 05:52:48;;;;;;;34.63;30.98;;;21.70;99.90;;;22.18;92.33;101251.88;5133335;28;20047;-68
2021/06/18 05:55:16;;;;;;;33.17;29.70;;;21.80;99.90;;;22.30;91.79;101237.78;5133426;28;20492;-69
2021/06/18 05:57:45;;;;;;;31.05;27.92;;;21.90;99.90;;;22.36;91.21;101235.69;5114879;28;20100;-68
2021/06/18 06:00:15;;;;;;;31.70;28.58;;;22.00;99.90;;;22.47;90.93;101227.13;5115051;28;20071;-68
2021/06/18 06:03:05;;;;;;;31.52;27.85;;;22.10;99.90;;;22.56;90.28;101217.69;5133509;27;20089;-68
2021/06/18 06:05:34;;;;;;;29.38;26.38;;;22.20;99.90;;;22.39;89.61;101192.44;5137371;27;20039;-69
2021/06/18 06:08:02;;;;;;;32.53;29.08;;;22.20;99.90;;;22.38;89.35;101220.31;5137347;27;20043;-68
2021/06/18 06:10:45;;;;;;;30.20;26.90;;;22.10;99.90;;;22.58;89.50;101232.00;5137609;27;20054;-69
2021/06/18 06:13:14;;;;;;;31.65;28.17;;;22.20;99.90;;;22.67;88.94;101227.03;5118753;27;20051;-69
2021/06/18 06:15:42;;;;;;;30.27;27.00;;;22.30;99.90;;;22.77;88.63;101235.56;5137229;27;20158;-68
2021/06/18 06:18:12;;;;;;;31.90;28.50;;;22.40;99.90;;;22.82;88.68;101244.31;5118972;27;20050;-68
2021/06/18 06:20:41;;;;;;;29.85;26.83;;;22.50;99.90;;;22.87;88.11;101253.06;5118848;27;20146;-68
2021/06/18 06:23:10;;;;;;;33.40;29.83;;;22.50;99.90;;;22.86;87.58;101249.47;5137264;27;20077;-68
2021/06/18 06:25:39;;;;;;;32.83;29.27;;;22.50;99.90;;;22.43;87.51;101175.13;5136955;27;20082;-68
2021/06/18 06:28:09;;;;;;;33.75;30.17;;;22.50;99.90;;;22.95;87.47;101256.25;5137014;27;20492;-68
2021/06/18 06:30:37;;;;;;;31.42;28.17;;;22.60;99.90;;;23.05;87.44;101252.16;5136569;27;20047;-68
2021/06/18 06:33:06;;;;;;;32.15;28.60;;;22.70;99.90;;;23.12;87.27;101269.78;5136945;27;20051;-68
2021/06/18 06:35:36;;;;;;;32.10;28.95;;;22.70;99.90;;;22.86;86.64;101243.22;5136802;27;20092;-68
2021/06/18 06:38:04;;;;;;;31.80;28.75;;;22.70;99.90;;;23.03;86.87;101254.06;5137110;27;20043;-68
2021/06/18 06:40:33;;;;;;;31.10;27.98;;;22.70;99.90;;;23.06;86.45;101243.09;5136879;27;20044;-68
2021/06/18 06:43:01;;;;;;;30.23;27.13;;;22.70;99.90;;;23.08;86.56;101235.81;5136829;27;20606;-68
2021/06/18 06:45:30;;;;;;;34.47;27.13;;;22.70;99.90;;;23.20;86.48;101240.59;5118481;27;20051;-68
2021/06/18 06:47:58;;;;;;;29.17;26.20;;;22.80;99.90;;;23.20;86.05;101237.88;5136782;27;20130;-68
2021/06/18 06:50:27;;;;;;;30.65;27.35;;;22.90;99.90;;;23.16;86.05;101242.56;5136887;27;20078;-68
2021/06/18 06:52:57;;;;;;;30.92;27.00;;;22.90;99.90;;;23.00;85.71;101240.69;5136719;27;20054;-68
2021/06/18 06:55:25;;;;;;;27.25;24.42;;;22.80;99.90;;;23.04;86.23;101243.19;5118265;27;20143;-68
2021/06/18 06:57:54;;;;;;;28.77;25.80;;;22.70;99.90;;;22.99;86.10;101238.97;5136629;27;20039;-68
2021/06/18 07:00:23;;;;;;;27.98;25.20;;;22.70;99.90;;;23.06;86.52;101248.50;5136604;27;20075;-68
2021/06/18 07:02:52;;;;;;;27.27;24.42;;;22.70;99.90;;;23.11;86.25;101249.16;5118101;27;20062;-67
2021/06/18 07:05:24;;;;;;;26.95;24.40;;;22.80;99.90;;;22.96;86.48;101241.81;5136392;27;20051;-68
2021/06/18 07:07:52;;;;;;;27.58;24.67;;;22.70;99.90;;;22.73;86.98;101248.31;5136545;27;20039;-68
2021/06/18 07:10:22;;;;;;;25.23;22.60;;;22.60;99.90;;;23.04;86.88;101256.69;5136438;27;20051;-68
2021/06/18 07:12:50;;;;;;;27.65;25.00;;;22.70;99.90;;;23.18;86.92;101254.16;5136381;27;20047;-68
2021/06/18 07:15:19;;;;;;;26.25;23.65;;;22.80;99.90;;;23.32;86.55;101261.59;5134996;27;20570;-68
2021/06/18 07:17:47;;;;;;;28.25;25.40;;;22.90;99.90;;;22.96;85.79;101269.66;5136232;27;20040;-68
2021/06/18 07:20:16;;;;;;;27.77;24.77;;;22.80;99.90;;;22.82;86.73;101271.31;5136150;27;20459;-68
2021/06/18 07:22:45;;;;;;;28.75;25.65;;;22.60;99.90;;;22.62;87.96;101257.88;5136492;27;20050;-68
2021/06/18 07:25:13;;;;;;;29.65;26.65;;;22.40;99.90;;;22.37;89.84;101263.53;5136185;27;20095;-68
2021/06/18 07:27:44;;;;;;;30.70;27.60;;;22.20;99.90;;;22.43;89.47;101272.19;5136244;27;20049;-68
2021/06/18 07:30:13;;;;;;;33.10;29.38;;;22.20;99.90;;;22.21;90.87;101241.81;5136067;27;20039;-68
2021/06/18 07:32:43;;;;;;;31.70;28.50;;;22.00;99.90;;;22.14;91.95;101261.03;5136413;27;20112;-68
2021/06/18 07:35:12;;;;;;;38.17;30.65;;;21.80;99.90;;;22.26;91.67;101255.94;5135974;27;20069;-68
2021/06/18 07:37:42;;;;;;;33.25;29.90;;;21.90;99.90;;;22.49;90.81;101262.09;5117426;27;20078;-68
2021/06/18 07:40:13;;;;;;;34.53;30.95;;;22.10;99.90;;;22.36;90.50;101259.06;5135823;27;20051;-68
2021/06/18 07:42:45;;;;;;;35.47;32.00;;;22.10;99.90;;;22.68;90.54;101258.47;5117684;27;20078;-68
2021/06/18 07:45:15;;;;;;;35.83;32.05;;;22.20;99.90;;;22.35;91.45;101254.66;5135756;27;20042;-68
2021/06/18 07:47:44;;;;;;;38.75;33.88;;;22.10;99.90;;;22.02;93.52;101257.06;5135934;27;20058;-68
2021/06/18 07:50:16;;;;;;;39.00;35.00;;;21.80;99.90;;;22.05;93.21;101256.03;5135288;27;20519;-68
2021/06/18 07:52:46;;;;;;;40.72;36.30;;;21.70;99.90;;;22.13;93.32;101222.41;5135587;27;20092;-68
2021/06/18 07:55:20;;;;;;;38.80;34.85;;;21.80;99.90;;;22.42;92.15;101235.41;5135207;27;20039;-68
2021/06/18 07:57:52;;;;;;;38.83;34.65;;;22.00;99.90;;;22.08;91.78;101229.84;5135231;27;20053;-67
2021/06/18 08:00:22;;;;;;;39.22;35.17;;;21.90;99.90;;;21.93;93.15;101225.13;5135415;27;20076;-68
2021/06/18 08:02:51;;;;;;;38.03;34.17;;;21.70;99.90;;;22.17;93.00;101218.63;5135476;27;20046;-68
2021/06/18 08:05:20;;;;;;;36.10;32.33;;;21.80;99.90;;;22.02;91.68;101226.56;5134818;27;20059;-68
2021/06/18 08:07:49;;;;;;;36.38;32.58;;;21.80;99.90;;;21.97;92.74;101220.50;5135294;27;20043;-68
2021/06/18 08:10:20;;;;;;;34.42;30.85;;;21.60;99.90;;;22.16;91.75;101213.31;5135187;27;20050;-69
2021/06/18 08:12:51;;;;;;;34.30;30.58;;;21.80;99.90;;;22.25;90.84;101212.88;5135163;27;20092;-68
2021/06/18 08:15:20;;;;;;;31.27;28.02;;;21.90;99.90;;;22.13;90.84;101199.97;5116691;27;20047;-67
2021/06/18 08:17:49;;;;;;;31.02;27.92;;;21.90;99.90;;;22.50;90.25;101210.78;5134829;27;20065;-68
2021/06/18 08:20:20;;;;;;;31.23;28.15;;;22.10;99.90;;;22.73;89.86;101202.47;5135062;27;20079;-68
2021/06/18 08:22:49;;;;;;;30.58;27.58;;;22.30;99.90;;;22.78;89.33;101200.44;5134993;27;20057;-68
2021/06/18 08:25:18;;;;;;;30.00;26.95;;;22.50;99.90;;;22.91;87.61;101195.28;5134896;27;20097;-68
2021/06/18 08:27:46;;;;;;;27.95;25.10;;;22.60;99.90;;;22.47;87.96;101186.66;5134707;27;20046;-68
2021/06/18 08:30:19;;;;;;;28.98;26.17;;;22.20;99.90;;;22.64;88.18;101200.22;5134843;27;20062;-68
2021/06/18 08:32:50;;;;;;;25.42;22.92;;;22.30;99.90;;;22.83;87.63;101202.88;5134804;27;20057;-68
2021/06/18 08:35:20;;;;;;;26.23;23.60;;;22.50;99.90;;;23.02;87.72;101190.22;5134749;27;20036;-68
2021/06/18 08:37:49;;;;;;;26.20;23.50;;;22.60;99.90;;;22.54;88.52;101192.63;5134738;27;20100;-68
2021/06/18 08:40:18;;;;;;;25.25;22.70;;;22.30;99.90;;;22.70;87.99;101189.16;5116245;27;20076;-68
2021/06/18 08:42:48;;;;;;;27.73;23.90;;;22.40;99.90;;;22.94;88.57;101193.31;5134459;27;20039;-68
2021/06/18 08:45:18;;;;;;;25.38;22.95;;;22.60;99.90;;;23.34;88.79;101194.91;5134472;27;20069;-68
2021/06/18 08:47:49;;;;;;;26.50;22.42;;;22.90;99.90;;;23.45;85.86;101192.50;5134543;27;20051;-68
2021/06/18 08:50:22;;;;;;;27.05;21.55;;;23.10;99.90;;;23.79;84.48;101187.03;5134516;27;20404;-68
2021/06/18 08:52:53;;;;;;;21.90;19.23;;;23.40;99.90;;;23.82;82.08;101186.03;5134828;27;20058;-68
2021/06/18 08:55:22;;;;;;;;;;;23.60;99.90;;;23.61;82.58;101187.16;5116450;27;20138;-68
2021/06/18 08:57:53;;;;;;;20.98;18.98;;;23.40;99.90;;;23.79;82.97;101188.91;5134420;27;19976;-68
2021/06/18 09:00:25;;;;;;;18.35;16.50;;;23.40;99.90;;;23.61;80.79;101182.66;5134428;27;20058;-68
2021/06/18 09:02:56;;;;;;;19.05;17.25;;;23.40;99.90;;;24.06;81.30;101188.28;5134306;27;20039;-68
2021/06/18 09:05:25;;;;;;;20.05;18.02;;;23.70;99.90;;;24.34;79.33;101186.75;5134165;27;20130;-68
2021/06/18 09:07:59;;;;;;;19.02;17.05;;;24.00;99.90;;;24.34;79.12;101184.94;5133980;27;20061;-68
2021/06/18 09:10:32;;;;;;;17.75;15.75;;;24.00;99.90;;;24.23;77.39;101190.06;5115837;27;20145;-68
2021/06/18 09:13:15;;;;;;;17.90;16.10;;;24.10;99.90;;;24.54;77.97;101194.63;5134252;27;20092;-70
2021/06/18 09:15:50;;;;;;;16.92;14.50;;;24.20;99.90;;;24.27;77.98;101198.88;5134167;27;20043;-68
2021/06/18 09:18:39;;;;;;;15.70;14.13;;;24.00;99.90;;;23.94;78.65;101175.41;5134337;27;20051;-68
2021/06/18 09:21:21;;;;;;;16.20;14.60;;;23.70;99.90;;;23.98;79.80;101181.53;5134036;27;20047;-68
2021/06/18 09:23:52;;;;;;;15.73;14.23;;;23.70;99.90;;;24.46;79.38;101178.84;5133810;27;20096;-68
2021/06/18 09:26:28;;;;;;;18.90;15.20;;;24.00;99.90;;;24.19;78.78;101185.78;5133892;27;20414;-68
2021/06/18 09:29:10;;;;;;;14.02;12.27;;;23.90;99.90;;;24.69;78.44;101185.63;5133983;27;20047;-68
2021/06/18 09:31:48;;;;;;;13.43;11.45;;;24.20;99.90;;;24.67;77.00;101174.03;5133982;27;20054;-68
2021/06/18 09:34:31;;;;;;;11.82;10.52;;;24.30;99.90;;;24.64;73.69;101155.28;5134017;28;20047;-68
2021/06/18 09:37:29;;;;;;;12.38;9.82;;;24.50;99.90;;;24.82;74.80;101176.75;5115490;28;20500;-68
2021/06/18 09:40:19;;;;;;;11.18;9.27;;;24.40;99.90;;;25.07;72.40;101167.19;5136909;27;20047;-68
2021/06/18 09:42:53;;;;;;;11.48;9.43;;;24.70;99.90;;;25.07;72.17;101165.34;5138138;27;20127;-68
2021/06/18 09:45:24;;;;;;;11.45;10.10;;;24.80;99.90;;;25.16;72.54;101170.22;5137908;27;20480;-68
2021/06/18 09:48:08;;;;;;;13.27;9.82;;;24.80;99.90;;;25.23;72.03;101147.22;5119637;27;20043;-68
2021/06/18 09:50:39;;;;;;;11.48;9.48;;;25.00;99.90;;;25.43;70.20;101168.59;5137732;27;20096;-68
2021/06/18 09:53:16;;;;;;;10.90;9.55;;;25.20;99.90;;;25.70;70.26;101149.75;5137978;27;20047;-68
2021/06/18 09:55:48;;;;;;;11.00;8.85;;;25.30;99.90;;;25.94;67.81;101161.75;5137832;27;20047;-68
2021/06/18 09:58:34;;;;;;;11.13;8.40;;;25.60;99.90;;;25.77;66.26;101134.84;5137881;27;20046;-68
2021/06/18 10:01:18;;;;;;;10.93;8.40;;;25.70;99.90;;;25.44;70.93;101148.66;5137879;27;20043;-68
2021/06/18 10:04:03;;;;;;;13.02;8.65;;;25.20;99.90;;;25.81;69.80;101150.81;5137543;27;20047;-68
2021/06/18 10:06:35;;;;;;;11.40;8.88;;;25.40;99.90;;;25.91;67.30;101141.16;5119240;27;20043;-68
2021/06/18 10:09:06;;;;;;;9.95;8.07;;;25.60;99.90;;;25.70;67.21;101130.78;5137686;27;20388;-68
2021/06/18 10:11:36;;;;;;;12.65;8.65;;;25.60;99.90;;;25.51;67.66;101147.28;5137406;27;20043;-68
2021/06/18 10:14:05;;;;;;;10.57;9.45;;;25.30;99.90;;;25.60;67.52;101152.16;5137585;27;20051;-68
2021/06/18 10:16:34;;;;;;;9.63;8.63;;;25.20;99.90;;;25.57;68.76;101144.19;5137489;27;20039;-68